GTI1401 LOWW-EDDF
Flight info
| Callsign | GTI1401 |
|---|---|
| Flight time | N/A |
| Altitude | 34000 |
| Route | BUWUT2A/11 BUWUT DCT DITIS DCT RAPET T170 VAGAB/N0410F240 T170 GAPLA T178 KERAX KERAX5A |
| Aircraft | B738/M-V/N |
Departure
| Time | N/A |
|---|---|
| Airport | Vienna International Airport (LOWW) |
Arrival
| Time | 2026-05-03 20:58 |
|---|---|
| Airport | Frankfurt Main Airport (EDDF) |
| Time | Latitude | Longitude | Altitude | Speed | Heading |
|---|---|---|---|---|---|
| 2026-05-03 20:15 | 49.59441 | 13.65590 | 33960 ft | 431 kts | 304° |
| 2026-05-03 20:15 | 49.62925 | 13.58069 | 33964 ft | 431 kts | 304° |
| 2026-05-03 20:16 | 49.66404 | 13.50536 | 33962 ft | 431 kts | 304° |
| 2026-05-03 20:16 | 49.69880 | 13.42990 | 33966 ft | 431 kts | 303° |
| 2026-05-03 20:17 | 49.73348 | 13.35440 | 33967 ft | 431 kts | 303° |
| 2026-05-03 20:17 | 49.76808 | 13.27885 | 33968 ft | 431 kts | 303° |
| 2026-05-03 20:18 | 49.80244 | 13.20361 | 33965 ft | 431 kts | 303° |
| 2026-05-03 20:18 | 49.83685 | 13.12803 | 33962 ft | 431 kts | 303° |
| 2026-05-03 20:19 | 49.87097 | 13.05289 | 33957 ft | 432 kts | 303° |
| 2026-05-03 20:19 | 49.90549 | 12.97665 | 33955 ft | 432 kts | 303° |
| 2026-05-03 20:20 | 49.93991 | 12.90041 | 33969 ft | 433 kts | 303° |
| 2026-05-03 20:20 | 49.97437 | 12.82388 | 33978 ft | 433 kts | 302° |
| 2026-05-03 20:21 | 50.00773 | 12.74956 | 33982 ft | 434 kts | 302° |
| 2026-05-03 20:21 | 50.04223 | 12.67249 | 33983 ft | 434 kts | 302° |
| 2026-05-03 20:22 | 50.07672 | 12.59521 | 33978 ft | 435 kts | 302° |
| 2026-05-03 20:22 | 50.11037 | 12.51960 | 33985 ft | 435 kts | 302° |
| 2026-05-03 20:23 | 50.14482 | 12.44214 | 33985 ft | 435 kts | 302° |
| 2026-05-03 20:23 | 50.17914 | 12.36447 | 33974 ft | 434 kts | 301° |
| 2026-05-03 20:24 | 50.20410 | 12.28497 | 34003 ft | 430 kts | 288° |
| 2026-05-03 20:24 | 50.22036 | 12.21160 | 33982 ft | 430 kts | 287° |
| 2026-05-03 20:25 | 50.24003 | 12.12328 | 33994 ft | 430 kts | 287° |
| 2026-05-03 20:25 | 50.26006 | 12.03556 | 33996 ft | 430 kts | 287° |
| 2026-05-03 20:26 | 50.27993 | 11.94890 | 33997 ft | 430 kts | 287° |
| 2026-05-03 20:26 | 50.29628 | 11.87767 | 33992 ft | 429 kts | 287° |
| 2026-05-03 20:27 | 50.31953 | 11.77592 | 33995 ft | 429 kts | 287° |
| 2026-05-03 20:27 | 50.33952 | 11.68799 | 33996 ft | 429 kts | 287° |
| 2026-05-03 20:28 | 50.35841 | 11.60453 | 33989 ft | 430 kts | 287° |
| 2026-05-03 20:28 | 50.37807 | 11.51735 | 33990 ft | 430 kts | 287° |
| 2026-05-03 20:29 | 50.39789 | 11.42905 | 33980 ft | 429 kts | 286° |
| 2026-05-03 20:29 | 50.41734 | 11.34214 | 33978 ft | 429 kts | 286° |
| 2026-05-03 20:30 | 50.43698 | 11.25382 | 33973 ft | 429 kts | 286° |
| 2026-05-03 20:30 | 50.45632 | 11.16639 | 33847 ft | 431 kts | 286° |
| 2026-05-03 20:30 | 50.46615 | 11.12178 | 33252 ft | 432 kts | 285° |
| 2026-05-03 20:31 | 50.47591 | 11.07747 | 32722 ft | 431 kts | 285° |
| 2026-05-03 20:31 | 50.48573 | 11.03277 | 32202 ft | 432 kts | 285° |
| 2026-05-03 20:31 | 50.49553 | 10.98806 | 31694 ft | 434 kts | 285° |
| 2026-05-03 20:31 | 50.50533 | 10.94322 | 31199 ft | 435 kts | 285° |
| 2026-05-03 20:32 | 50.51506 | 10.89866 | 30707 ft | 435 kts | 285° |
| 2026-05-03 20:32 | 50.52488 | 10.85363 | 30227 ft | 435 kts | 285° |
| 2026-05-03 20:32 | 50.53461 | 10.80895 | 29698 ft | 435 kts | 285° |
| 2026-05-03 20:32 | 50.54361 | 10.76869 | 29191 ft | 436 kts | 286° |
| 2026-05-03 20:33 | 50.55382 | 10.72389 | 28651 ft | 436 kts | 286° |
| 2026-05-03 20:33 | 50.56413 | 10.67894 | 28109 ft | 436 kts | 287° |
| 2026-05-03 20:33 | 50.57442 | 10.63396 | 27585 ft | 438 kts | 286° |
| 2026-05-03 20:33 | 50.58469 | 10.58881 | 27073 ft | 440 kts | 286° |
| 2026-05-03 20:34 | 50.59501 | 10.54317 | 26565 ft | 446 kts | 286° |
| 2026-05-03 20:34 | 50.60541 | 10.49698 | 26057 ft | 448 kts | 286° |
| 2026-05-03 20:34 | 50.61578 | 10.45096 | 25577 ft | 446 kts | 286° |
| 2026-05-03 20:34 | 50.62578 | 10.40646 | 25104 ft | 444 kts | 286° |
| 2026-05-03 20:35 | 50.63624 | 10.35976 | 24614 ft | 442 kts | 286° |
| 2026-05-03 20:35 | 50.64330 | 10.31414 | 24112 ft | 416 kts | 272° |
| 2026-05-03 20:35 | 50.64218 | 10.26918 | 23662 ft | 399 kts | 259° |
| 2026-05-03 20:35 | 50.63743 | 10.23004 | 23169 ft | 387 kts | 251° |
| 2026-05-03 20:36 | 50.62678 | 10.19191 | 22644 ft | 375 kts | 240° |
| 2026-05-03 20:36 | 50.61379 | 10.15687 | 22116 ft | 367 kts | 238° |
| 2026-05-03 20:36 | 50.60092 | 10.12359 | 21598 ft | 360 kts | 238° |
| 2026-05-03 20:36 | 50.58829 | 10.09001 | 21086 ft | 353 kts | 239° |
| 2026-05-03 20:37 | 50.57628 | 10.05666 | 20587 ft | 348 kts | 240° |
| 2026-05-03 20:37 | 50.56467 | 10.02357 | 20086 ft | 343 kts | 240° |
| 2026-05-03 20:37 | 50.55328 | 9.99087 | 19602 ft | 339 kts | 240° |
| 2026-05-03 20:37 | 50.54247 | 9.95821 | 19125 ft | 335 kts | 245° |
| 2026-05-03 20:38 | 50.53478 | 9.92375 | 18653 ft | 333 kts | 252° |
| 2026-05-03 20:38 | 50.52865 | 9.88886 | 18178 ft | 330 kts | 253° |
| 2026-05-03 20:38 | 50.52268 | 9.85429 | 17647 ft | 327 kts | 253° |
| 2026-05-03 20:38 | 50.51664 | 9.81999 | 17129 ft | 324 kts | 252° |
| 2026-05-03 20:39 | 50.51056 | 9.78607 | 16601 ft | 321 kts | 252° |
| 2026-05-03 20:39 | 50.50457 | 9.75289 | 15968 ft | 318 kts | 252° |
| 2026-05-03 20:39 | 50.49866 | 9.71973 | 15221 ft | 312 kts | 252° |
| 2026-05-03 20:39 | 50.49306 | 9.68709 | 14495 ft | 307 kts | 253° |
| 2026-05-03 20:40 | 50.48757 | 9.65493 | 13779 ft | 302 kts | 252° |
| 2026-05-03 20:40 | 50.48214 | 9.62333 | 13001 ft | 298 kts | 252° |
| 2026-05-03 20:40 | 50.47676 | 9.59211 | 12228 ft | 294 kts | 252° |
| 2026-05-03 20:40 | 50.47122 | 9.56144 | 11478 ft | 290 kts | 250° |
| 2026-05-03 20:41 | 50.46536 | 9.53133 | 10741 ft | 286 kts | 250° |
| 2026-05-03 20:41 | 50.45948 | 9.50165 | 10012 ft | 283 kts | 249° |
| 2026-05-03 20:41 | 50.45368 | 9.47242 | 9238 ft | 278 kts | 249° |
| 2026-05-03 20:41 | 50.44827 | 9.44510 | 8556 ft | 274 kts | 250° |
| 2026-05-03 20:42 | 50.44460 | 9.42655 | 8375 ft | 262 kts | 249° |
| 2026-05-03 20:42 | 50.43763 | 9.39122 | 8215 ft | 258 kts | 249° |
| 2026-05-03 20:42 | 50.43236 | 9.36459 | 8120 ft | 253 kts | 249° |
| 2026-05-03 20:42 | 50.42720 | 9.33851 | 7877 ft | 249 kts | 249° |
| 2026-05-03 20:43 | 50.42231 | 9.31382 | 7653 ft | 249 kts | 249° |
| 2026-05-03 20:43 | 50.41396 | 9.29103 | 7391 ft | 245 kts | 225° |
| 2026-05-03 20:43 | 50.39975 | 9.27796 | 7157 ft | 247 kts | 200° |
| 2026-05-03 20:43 | 50.38320 | 9.27228 | 7025 ft | 235 kts | 194° |
| 2026-05-03 20:44 | 50.36771 | 9.26821 | 6972 ft | 218 kts | 194° |
| 2026-05-03 20:44 | 50.35399 | 9.26484 | 6750 ft | 214 kts | 194° |
| 2026-05-03 20:44 | 50.33924 | 9.26127 | 6521 ft | 215 kts | 194° |
| 2026-05-03 20:44 | 50.32454 | 9.25776 | 6269 ft | 214 kts | 194° |
| 2026-05-03 20:45 | 50.30976 | 9.25425 | 6012 ft | 215 kts | 193° |
| 2026-05-03 20:45 | 50.29496 | 9.25067 | 5753 ft | 216 kts | 193° |
| 2026-05-03 20:45 | 50.28009 | 9.24707 | 5365 ft | 217 kts | 194° |
| 2026-05-03 20:45 | 50.26512 | 9.24333 | 4869 ft | 216 kts | 197° |
| 2026-05-03 20:46 | 50.25234 | 9.23423 | 4381 ft | 207 kts | 214° |
| 2026-05-03 20:46 | 50.23998 | 9.22268 | 4073 ft | 210 kts | 213° |
| 2026-05-03 20:46 | 50.22776 | 9.21026 | 3991 ft | 207 kts | 221° |
| 2026-05-03 20:46 | 50.21702 | 9.19578 | 3976 ft | 202 kts | 223° |
| 2026-05-03 20:47 | 50.20649 | 9.18115 | 3963 ft | 205 kts | 224° |
| 2026-05-03 20:47 | 50.19582 | 9.16634 | 3953 ft | 206 kts | 223° |
| 2026-05-03 20:47 | 50.18513 | 9.15143 | 3953 ft | 206 kts | 223° |
| 2026-05-03 20:47 | 50.17495 | 9.13692 | 3956 ft | 205 kts | 227° |
| 2026-05-03 20:48 | 50.16993 | 9.12472 | 3953 ft | 197 kts | 247° |
| 2026-05-03 20:48 | 50.16411 | 9.09910 | 3947 ft | 181 kts | 248° |
| 2026-05-03 20:48 | 50.15973 | 9.08115 | 3945 ft | 174 kts | 248° |
| 2026-05-03 20:48 | 50.15669 | 9.06871 | 3945 ft | 173 kts | 248° |
| 2026-05-03 20:49 | 50.15236 | 9.05104 | 3965 ft | 175 kts | 248° |
| 2026-05-03 20:49 | 50.14801 | 9.03322 | 3968 ft | 177 kts | 248° |
| 2026-05-03 20:49 | 50.14365 | 9.01536 | 3955 ft | 175 kts | 248° |
| 2026-05-03 20:49 | 50.13936 | 8.99772 | 3952 ft | 174 kts | 248° |
| 2026-05-03 20:50 | 50.13504 | 8.97999 | 3948 ft | 176 kts | 248° |
| 2026-05-03 20:50 | 50.13069 | 8.96211 | 3943 ft | 176 kts | 248° |
| 2026-05-03 20:50 | 50.12783 | 8.95032 | 3935 ft | 176 kts | 248° |
| 2026-05-03 20:50 | 50.12226 | 8.92734 | 3903 ft | 168 kts | 248° |
| 2026-05-03 20:51 | 50.11822 | 8.91069 | 3856 ft | 163 kts | 248° |
| 2026-05-03 20:51 | 50.11416 | 8.89402 | 3823 ft | 166 kts | 248° |
| 2026-05-03 20:51 | 50.11007 | 8.87713 | 3793 ft | 167 kts | 248° |
| 2026-05-03 20:51 | 50.10596 | 8.86019 | 3749 ft | 167 kts | 248° |
| 2026-05-03 20:52 | 50.10196 | 8.84362 | 3720 ft | 159 kts | 248° |
| 2026-05-03 20:52 | 50.09860 | 8.82973 | 3610 ft | 142 kts | 248° |
| 2026-05-03 20:52 | 50.09538 | 8.81640 | 3466 ft | 122 kts | 248° |
| 2026-05-03 20:52 | 50.09252 | 8.80456 | 3311 ft | 115 kts | 249° |
| 2026-05-03 20:53 | 50.08970 | 8.79291 | 3164 ft | 114 kts | 249° |
| 2026-05-03 20:53 | 50.08693 | 8.78145 | 3012 ft | 113 kts | 249° |
| 2026-05-03 20:53 | 50.08414 | 8.76991 | 2866 ft | 115 kts | 250° |
| 2026-05-03 20:53 | 50.08130 | 8.75810 | 2717 ft | 117 kts | 250° |
| 2026-05-03 20:54 | 50.07846 | 8.74631 | 2559 ft | 115 kts | 249° |
| 2026-05-03 20:54 | 50.07273 | 8.72258 | 2248 ft | 120 kts | 249° |
| 2026-05-03 20:54 | 50.06979 | 8.71036 | 2092 ft | 121 kts | 249° |
| 2026-05-03 20:55 | 50.06684 | 8.69817 | 1920 ft | 120 kts | 249° |
| 2026-05-03 20:55 | 50.06386 | 8.68593 | 1792 ft | 122 kts | 250° |
| 2026-05-03 20:55 | 50.06089 | 8.67322 | 1606 ft | 128 kts | 249° |
| 2026-05-03 20:55 | 50.05771 | 8.66029 | 1440 ft | 128 kts | 248° |
| 2026-05-03 20:56 | 50.05466 | 8.64710 | 1251 ft | 129 kts | 247° |
| 2026-05-03 20:56 | 50.05158 | 8.63410 | 1072 ft | 130 kts | 248° |
| 2026-05-03 20:56 | 50.04834 | 8.62128 | 928 ft | 126 kts | 246° |
| 2026-05-03 20:56 | 50.04546 | 8.60888 | 727 ft | 132 kts | 248° |
| 2026-05-03 20:57 | 50.04210 | 8.59517 | 553 ft | 132 kts | 247° |
| 2026-05-03 20:57 | 50.03903 | 8.58229 | 377 ft | 128 kts | 248° |
| 2026-05-03 20:57 | 50.03632 | 8.57088 | 355 ft | 85 kts | 249° |
| 2026-05-03 20:57 | 50.03480 | 8.56453 | 352 ft | 56 kts | 249° |
| 2026-05-03 20:58 | 50.03363 | 8.55960 | 346 ft | 33 kts | 250° |
| 2026-05-03 20:58 | 50.03273 | 8.55661 | 347 ft | 31 kts | 234° |
| 2026-05-03 20:58 | 50.03154 | 8.55472 | 345 ft | 6 kts | 220° |
| 2026-05-03 20:58 | 50.03151 | 8.55467 | 344 ft | 0 kts | 220° |
| 2026-05-03 20:59 | 50.03150 | 8.55466 | 344 ft | 1 kts | 220° |
| 2026-05-03 20:59 | 50.03141 | 8.55454 | 344 ft | 3 kts | 220° |
| 2026-05-03 20:59 | 50.03132 | 8.55443 | 344 ft | 0 kts | 220° |
| 2026-05-03 20:59 | 50.03121 | 8.55433 | 346 ft | 5 kts | 204° |
| 2026-05-03 21:00 | 50.03072 | 8.55457 | 349 ft | 10 kts | 130° |
| 2026-05-03 21:00 | 50.03064 | 8.55491 | 344 ft | 10 kts | 97° |
| 2026-05-03 21:00 | 50.03085 | 8.55605 | 342 ft | 4 kts | 70° |
| 2026-05-03 21:00 | 50.03096 | 8.55649 | 345 ft | 6 kts | 69° |
| 2026-05-03 21:01 | 50.03121 | 8.55753 | 347 ft | 15 kts | 70° |
| 2026-05-03 21:01 | 50.03170 | 8.55957 | 348 ft | 25 kts | 69° |
| 2026-05-03 21:01 | 50.03236 | 8.56234 | 354 ft | 28 kts | 70° |
| 2026-05-03 21:01 | 50.03288 | 8.56457 | 352 ft | 21 kts | 67° |
| 2026-05-03 21:02 | 50.03341 | 8.56667 | 354 ft | 21 kts | 69° |
| 2026-05-03 21:02 | 50.03378 | 8.56828 | 359 ft | 10 kts | 70° |
| 2026-05-03 21:02 | 50.03401 | 8.56925 | 353 ft | 10 kts | 70° |
| 2026-05-03 21:02 | 50.03425 | 8.57026 | 355 ft | 10 kts | 69° |
| 2026-05-03 21:03 | 50.03447 | 8.57125 | 352 ft | 9 kts | 78° |
| 2026-05-03 21:03 | 50.03431 | 8.57190 | 359 ft | 0 kts | 139° |
| 2026-05-03 21:03 | 50.03425 | 8.57196 | 357 ft | 2 kts | 150° |
| 2026-05-03 21:04 | 50.03377 | 8.57188 | 355 ft | 15 kts | 216° |
| 2026-05-03 21:04 | 50.03323 | 8.56990 | 354 ft | 16 kts | 250° |
| 2026-05-03 21:04 | 50.03315 | 8.56953 | 359 ft | 2 kts | 250° |
| 2026-05-03 21:04 | 50.03306 | 8.56918 | 352 ft | 5 kts | 249° |
| 2026-05-03 21:05 | 50.03282 | 8.56847 | 355 ft | 9 kts | 218° |
| 2026-05-03 21:05 | 50.03215 | 8.56865 | 358 ft | 12 kts | 159° |
| 2026-05-03 21:05 | 50.03126 | 8.56916 | 357 ft | 15 kts | 160° |
| 2026-05-03 21:05 | 50.03023 | 8.56976 | 353 ft | 12 kts | 160° |
| 2026-05-03 21:06 | 50.02952 | 8.57017 | 354 ft | 11 kts | 159° |
| 2026-05-03 21:06 | 50.02875 | 8.57062 | 354 ft | 8 kts | 159° |
| 2026-05-03 21:06 | 50.02840 | 8.57077 | 353 ft | 4 kts | 184° |
| 2026-05-03 21:06 | 50.02826 | 8.57039 | 354 ft | 5 kts | 255° |
| 2026-05-03 21:07 | 50.02812 | 8.56982 | 356 ft | 4 kts | 249° |
| 2026-05-03 21:07 | 50.02803 | 8.56943 | 355 ft | 0 kts | 251° |
| 2026-05-03 21:07 | 50.02803 | 8.56942 | 349 ft | 0 kts | 250° |
| 2026-05-03 21:07 | 50.02802 | 8.56940 | 349 ft | 0 kts | 250° |